Thedford, NE

8:56 PM CDT on September 18, 2014 (GMT -0500)
Thedford | Change Station
CLOSE
Current Station
Airport
Location: Thedford,
Elevation: 2927 ft
Nearby Weather Stations

Elev 2927 ft 41.96 °N, 100.57 °W | Updated 21 minutes ago

Overcast
Overcast
68 °F
Feels Like 68 °F
N
9
Wind Variable Wind from South
Gusts 16 mph

Today
High -- | Low -- °F
--% Chance of Precip.
Yesterday
High -- | Low -- °F
Precip. -- in
7:25 AM 7:46 PM
Waning Crescent, 23% visible
Pressure 29.89 in
Visibility 10.0 miles
Clouds Overcast 1500 ft
Dew Point 62 °F
Humidity 81%
Rainfall 0.00 in
Snow Depth Not available.
UV 0 out of 12
Pollen 5.00 out of 12
Air Quality Not available.
Flu Activity Not available.
METAR KTIF 190135Z AUTO 18008G14KT 10SM OVC015 20/17 A2989 RMK AO2 T01990165

More Conditions Fewer Conditions

Pressure 29.89 in
Visibility 10.0 miles
Clouds Overcast 1500 ft
Dew Point 62 °F
Humidity 81%
Rainfall 0.00 in
Snow Depth Not available.
UV 0 out of 12
Pollen 5.00 out of 12
Air Quality Not available.
Flu Activity Not available.
METAR KTIF 190135Z AUTO 18008G14KT 10SM OVC015 20/17 A2989 RMK AO2 T01990165

More Conditions Fewer Conditions

10-Day Weather Forecast

Almanac

Astronomy

Sep. 18, 2014 Rise Set
Actual Time 7:25 AM CDT 7:46 PM CDT
Civil Twilight 6:57 AM CDT 8:14 PM CDT
Nautical Twilight 6:24 AM CDT 8:47 PM CDT
Astronomical Twilight 5:51 AM CDT 9:20 PM CDT
Moon 2:15 AM CDT (9/18) 4:42 PM CDT (9/18)
Length of Visible Light 13h 16m
Length of Day
12h 20m
Tomorrow will be 2m 47s shorter.
Waning Crescent, 23% of the Moon is Illuminated
Today
Waning Crescent
Sep 24
New
Oct 1
First Quarter
Oct 8
Full
Oct 15
Last Quarter

Today's Extremes

State Highs State Lows

Community

WunderPhotos

Upload Photos

1,754,529 photos uploaded!

Nearby

Snow Depth

Station Depth Elevation
No new snow has been reported.

Earthquake Activity

City Distance Mag. Time & Date
No recent earthquake activity has been reported nearby.
Minimum magnitude displayed is 2.5.

Coastal Water Temperatures

Place Temperature
No Stations Reporting

Nearby Weather Stations